sensor_id;sensor_type;location;lat;lon;timestamp;temperature;humidity
80230;DHT22;69540;42.136;24.742;2023-05-10T00:00:13;24.30;39.20
80230;DHT22;69540;42.136;24.742;2023-05-10T00:02:39;24.30;39.10
80230;DHT22;69540;42.136;24.742;2023-05-10T00:05:05;24.30;39.00
80230;DHT22;69540;42.136;24.742;2023-05-10T00:07:30;24.30;39.10
80230;DHT22;69540;42.136;24.742;2023-05-10T00:09:56;24.30;39.10
80230;DHT22;69540;42.136;24.742;2023-05-10T00:12:22;24.30;39.10
80230;DHT22;69540;42.136;24.742;2023-05-10T00:14:47;24.30;39.10
80230;DHT22;69540;42.136;24.742;2023-05-10T00:17:14;24.40;39.10
80230;DHT22;69540;42.136;24.742;2023-05-10T00:19:40;24.30;39.10
80230;DHT22;69540;42.136;24.742;2023-05-10T00:22:05;24.30;39.10
80230;DHT22;69540;42.136;24.742;2023-05-10T00:24:31;24.30;39.00
80230;DHT22;69540;42.136;24.742;2023-05-10T00:26:57;24.30;39.00
80230;DHT22;69540;42.136;24.742;2023-05-10T00:29:22;24.30;39.00
80230;DHT22;69540;42.136;24.742;2023-05-10T00:31:48;24.30;39.00
80230;DHT22;69540;42.136;24.742;2023-05-10T00:34:14;24.30;39.00
80230;DHT22;69540;42.136;24.742;2023-05-10T00:36:39;24.30;39.00
80230;DHT22;69540;42.136;24.742;2023-05-10T00:39:05;24.30;39.00
80230;DHT22;69540;42.136;24.742;2023-05-10T00:41:31;24.40;39.00
80230;DHT22;69540;42.136;24.742;2023-05-10T00:44:00;24.30;39.00
80230;DHT22;69540;42.136;24.742;2023-05-10T00:46:26;24.30;39.00
80230;DHT22;69540;42.136;24.742;2023-05-10T00:48:52;24.30;39.00
80230;DHT22;69540;42.136;24.742;2023-05-10T00:51:18;24.30;39.00
80230;DHT22;69540;42.136;24.742;2023-05-10T00:53:45;24.30;39.00
80230;DHT22;69540;42.136;24.742;2023-05-10T00:56:12;24.30;39.00
80230;DHT22;69540;42.136;24.742;2023-05-10T00:58:38;24.30;39.00
80230;DHT22;69540;42.136;24.742;2023-05-10T01:01:05;24.30;39.00
80230;DHT22;69540;42.136;24.742;2023-05-10T01:03:32;24.30;39.10
80230;DHT22;69540;42.136;24.742;2023-05-10T01:05:58;24.30;39.00
80230;DHT22;69540;42.136;24.742;2023-05-10T01:08:24;24.30;39.00
80230;DHT22;69540;42.136;24.742;2023-05-10T01:10:50;24.30;38.90
80230;DHT22;69540;42.136;24.742;2023-05-10T01:13:37;24.30;39.00
80230;DHT22;69540;42.136;24.742;2023-05-10T01:16:04;24.30;38.90
80230;DHT22;69540;42.136;24.742;2023-05-10T01:18:33;24.30;40.00
80230;DHT22;69540;42.136;24.742;2023-05-10T01:32:39;24.30;38.90
80230;DHT22;69540;42.136;24.742;2023-05-10T01:38:07;24.30;38.90
80230;DHT22;69540;42.136;24.742;2023-05-10T01:41:00;24.30;39.00
80230;DHT22;69540;42.136;24.742;2023-05-10T01:43:35;24.20;39.00
80230;DHT22;69540;42.136;24.742;2023-05-10T01:46:07;24.30;39.00
80230;DHT22;69540;42.136;24.742;2023-05-10T01:48:41;24.20;39.00
80230;DHT22;69540;42.136;24.742;2023-05-10T01:51:14;24.30;39.00
80230;DHT22;69540;42.136;24.742;2023-05-10T01:53:42;24.30;38.90
80230;DHT22;69540;42.136;24.742;2023-05-10T01:56:11;24.30;38.90
80230;DHT22;69540;42.136;24.742;2023-05-10T01:58:39;24.20;38.90
80230;DHT22;69540;42.136;24.742;2023-05-10T02:01:07;24.20;38.90
80230;DHT22;69540;42.136;24.742;2023-05-10T02:03:35;24.20;38.90
80230;DHT22;69540;42.136;24.742;2023-05-10T02:06:02;24.20;38.90
80230;DHT22;69540;42.136;24.742;2023-05-10T02:08:29;24.20;38.80
80230;DHT22;69540;42.136;24.742;2023-05-10T02:10:56;24.20;38.80
80230;DHT22;69540;42.136;24.742;2023-05-10T02:13:24;24.20;38.80
80230;DHT22;69540;42.136;24.742;2023-05-10T02:15:52;24.30;38.80
80230;DHT22;69540;42.136;24.742;2023-05-10T02:18:18;24.20;38.80
80230;DHT22;69540;42.136;24.742;2023-05-10T02:20:47;24.20;38.70
80230;DHT22;69540;42.136;24.742;2023-05-10T02:23:14;24.20;38.80
80230;DHT22;69540;42.136;24.742;2023-05-10T02:25:41;24.30;38.70
80230;DHT22;69540;42.136;24.742;2023-05-10T02:28:10;24.20;38.70
80230;DHT22;69540;42.136;24.742;2023-05-10T02:30:37;24.20;38.70
80230;DHT22;69540;42.136;24.742;2023-05-10T02:33:13;24.30;38.70
80230;DHT22;69540;42.136;24.742;2023-05-10T02:35:53;24.30;38.80
80230;DHT22;69540;42.136;24.742;2023-05-10T02:38:21;24.30;38.80
80230;DHT22;69540;42.136;24.742;2023-05-10T02:40:48;24.20;38.80
80230;DHT22;69540;42.136;24.742;2023-05-10T02:43:16;24.20;38.70
80230;DHT22;69540;42.136;24.742;2023-05-10T02:45:43;24.20;38.70
80230;DHT22;69540;42.136;24.742;2023-05-10T02:48:12;24.20;38.80
80230;DHT22;69540;42.136;24.742;2023-05-10T02:50:38;24.20;38.70
80230;DHT22;69540;42.136;24.742;2023-05-10T02:53:11;24.20;38.70
80230;DHT22;69540;42.136;24.742;2023-05-10T02:55:41;24.20;38.70
80230;DHT22;69540;42.136;24.742;2023-05-10T02:58:08;24.20;38.70
80230;DHT22;69540;42.136;24.742;2023-05-10T03:00:34;24.20;38.60
80230;DHT22;69540;42.136;24.742;2023-05-10T03:03:00;24.20;38.60
80230;DHT22;69540;42.136;24.742;2023-05-10T03:05:26;24.20;38.70
80230;DHT22;69540;42.136;24.742;2023-05-10T03:07:52;24.20;38.70
80230;DHT22;69540;42.136;24.742;2023-05-10T03:10:19;24.20;38.60
80230;DHT22;69540;42.136;24.742;2023-05-10T03:13:06;24.20;38.70
80230;DHT22;69540;42.136;24.742;2023-05-10T03:21:08;24.20;38.70
80230;DHT22;69540;42.136;24.742;2023-05-10T03:23:44;24.20;38.70
80230;DHT22;69540;42.136;24.742;2023-05-10T03:26:17;24.20;38.70
80230;DHT22;69540;42.136;24.742;2023-05-10T03:28:43;24.20;38.70
80230;DHT22;69540;42.136;24.742;2023-05-10T03:31:10;24.20;38.60
80230;DHT22;69540;42.136;24.742;2023-05-10T03:33:46;24.20;38.70
80230;DHT22;69540;42.136;24.742;2023-05-10T03:36:12;24.20;38.60
80230;DHT22;69540;42.136;24.742;2023-05-10T03:38:38;24.20;38.60
80230;DHT22;69540;42.136;24.742;2023-05-10T03:41:03;24.20;38.60
80230;DHT22;69540;42.136;24.742;2023-05-10T03:43:29;24.20;38.60
80230;DHT22;69540;42.136;24.742;2023-05-10T03:45:55;24.20;38.60
80230;DHT22;69540;42.136;24.742;2023-05-10T03:48:20;24.20;38.60
80230;DHT22;69540;42.136;24.742;2023-05-10T03:50:47;24.20;38.30
80230;DHT22;69540;42.136;24.742;2023-05-10T03:53:14;24.30;37.00
80230;DHT22;69540;42.136;24.742;2023-05-10T03:55:40;24.40;35.50
80230;DHT22;69540;42.136;24.742;2023-05-10T03:58:06;24.40;34.70
80230;DHT22;69540;42.136;24.742;2023-05-10T04:00:32;24.40;34.30
80230;DHT22;69540;42.136;24.742;2023-05-10T04:02:58;24.40;34.10
80230;DHT22;69540;42.136;24.742;2023-05-10T04:05:24;24.40;34.00
80230;DHT22;69540;42.136;24.742;2023-05-10T04:07:49;24.30;33.80
80230;DHT22;69540;42.136;24.742;2023-05-10T04:10:16;24.30;33.60
80230;DHT22;69540;42.136;24.742;2023-05-10T04:12:42;24.30;33.40
80230;DHT22;69540;42.136;24.742;2023-05-10T04:15:08;24.30;33.30
80230;DHT22;69540;42.136;24.742;2023-05-10T04:17:34;24.30;33.20
80230;DHT22;69540;42.136;24.742;2023-05-10T04:19:59;24.20;33.00
80230;DHT22;69540;42.136;24.742;2023-05-10T04:22:25;24.20;32.80
80230;DHT22;69540;42.136;24.742;2023-05-10T04:24:50;24.20;33.00
80230;DHT22;69540;42.136;24.742;2023-05-10T04:27:16;24.20;32.90
80230;DHT22;69540;42.136;24.742;2023-05-10T04:29:42;24.20;33.00
80230;DHT22;69540;42.136;24.742;2023-05-10T04:32:08;24.20;33.00
80230;DHT22;69540;42.136;24.742;2023-05-10T04:34:36;24.20;32.90
80230;DHT22;69540;42.136;24.742;2023-05-10T04:37:01;24.20;32.70
80230;DHT22;69540;42.136;24.742;2023-05-10T04:39:27;24.10;32.70
80230;DHT22;69540;42.136;24.742;2023-05-10T04:41:52;24.10;32.70
80230;DHT22;69540;42.136;24.742;2023-05-10T04:47:57;24.10;32.70
80230;DHT22;69540;42.136;24.742;2023-05-10T04:50:23;24.00;34.60
80230;DHT22;69540;42.136;24.742;2023-05-10T04:52:48;24.00;36.30
80230;DHT22;69540;42.136;24.742;2023-05-10T04:55:14;24.00;38.90
80230;DHT22;69540;42.136;24.742;2023-05-10T04:57:39;24.00;39.90
80230;DHT22;69540;42.136;24.742;2023-05-10T05:00:06;23.90;38.30
80230;DHT22;69540;42.136;24.742;2023-05-10T05:02:32;23.90;37.30
80230;DHT22;69540;42.136;24.742;2023-05-10T05:04:57;23.90;36.40
80230;DHT22;69540;42.136;24.742;2023-05-10T05:07:23;23.90;35.80
80230;DHT22;69540;42.136;24.742;2023-05-10T05:09:48;23.90;35.70
80230;DHT22;69540;42.136;24.742;2023-05-10T05:12:14;23.80;35.70
80230;DHT22;69540;42.136;24.742;2023-05-10T05:14:40;23.80;35.70
80230;DHT22;69540;42.136;24.742;2023-05-10T05:17:06;23.80;35.30
80230;DHT22;69540;42.136;24.742;2023-05-10T05:19:35;23.80;34.60
80230;DHT22;69540;42.136;24.742;2023-05-10T05:22:23;23.90;34.20
80230;DHT22;69540;42.136;24.742;2023-05-10T05:25:05;23.90;34.20
80230;DHT22;69540;42.136;24.742;2023-05-10T05:27:32;23.80;34.50
80230;DHT22;69540;42.136;24.742;2023-05-10T05:29:58;23.80;34.40
80230;DHT22;69540;42.136;24.742;2023-05-10T05:32:25;23.80;34.60
80230;DHT22;69540;42.136;24.742;2023-05-10T05:34:50;23.80;34.40
80230;DHT22;69540;42.136;24.742;2023-05-10T05:37:20;23.80;34.30
80230;DHT22;69540;42.136;24.742;2023-05-10T05:40:13;23.80;33.90
80230;DHT22;69540;42.136;24.742;2023-05-10T05:42:52;23.80;33.70
80230;DHT22;69540;42.136;24.742;2023-05-10T05:45:18;23.80;33.70
80230;DHT22;69540;42.136;24.742;2023-05-10T05:47:44;23.80;33.60
80230;DHT22;69540;42.136;24.742;2023-05-10T05:50:33;23.80;33.60
80230;DHT22;69540;42.136;24.742;2023-05-10T05:53:22;23.80;34.60
80230;DHT22;69540;42.136;24.742;2023-05-10T05:55:55;23.80;34.00
80230;DHT22;69540;42.136;24.742;2023-05-10T05:58:24;23.80;34.00
80230;DHT22;69540;42.136;24.742;2023-05-10T06:00:53;23.70;35.00
80230;DHT22;69540;42.136;24.742;2023-05-10T06:03:19;23.60;35.40
80230;DHT22;69540;42.136;24.742;2023-05-10T06:05:45;23.60;35.50
80230;DHT22;69540;42.136;24.742;2023-05-10T06:08:11;23.60;35.40
80230;DHT22;69540;42.136;24.742;2023-05-10T06:10:36;23.60;35.40
80230;DHT22;69540;42.136;24.742;2023-05-10T06:13:05;23.60;36.40
80230;DHT22;69540;42.136;24.742;2023-05-10T06:15:34;23.60;35.50
80230;DHT22;69540;42.136;24.742;2023-05-10T06:18:00;23.60;35.70
80230;DHT22;69540;42.136;24.742;2023-05-10T06:20:25;23.70;36.00
80230;DHT22;69540;42.136;24.742;2023-05-10T06:22:51;23.70;36.10
80230;DHT22;69540;42.136;24.742;2023-05-10T06:25:19;23.60;37.20
80230;DHT22;69540;42.136;24.742;2023-05-10T06:27:45;23.70;36.30
80230;DHT22;69540;42.136;24.742;2023-05-10T06:30:11;23.70;36.40
80230;DHT22;69540;42.136;24.742;2023-05-10T06:32:38;23.70;36.40
80230;DHT22;69540;42.136;24.742;2023-05-10T06:35:04;23.70;36.50
80230;DHT22;69540;42.136;24.742;2023-05-10T06:37:30;23.70;36.60
80230;DHT22;69540;42.136;24.742;2023-05-10T06:39:56;23.80;36.60
80230;DHT22;69540;42.136;24.742;2023-05-10T06:42:26;23.80;36.70
80230;DHT22;69540;42.136;24.742;2023-05-10T06:44:52;23.80;36.80
80230;DHT22;69540;42.136;24.742;2023-05-10T06:47:18;23.80;36.90
80230;DHT22;69540;42.136;24.742;2023-05-10T06:49:44;23.80;37.10
80230;DHT22;69540;42.136;24.742;2023-05-10T06:52:09;23.90;37.40
80230;DHT22;69540;42.136;24.742;2023-05-10T06:54:35;23.90;37.40
80230;DHT22;69540;42.136;24.742;2023-05-10T06:57:01;23.90;37.60
80230;DHT22;69540;42.136;24.742;2023-05-10T06:59:28;23.90;37.80
80230;DHT22;69540;42.136;24.742;2023-05-10T07:01:54;23.90;37.80
80230;DHT22;69540;42.136;24.742;2023-05-10T07:04:20;23.90;37.80
80230;DHT22;69540;42.136;24.742;2023-05-10T07:06:45;23.90;37.80
80230;DHT22;69540;42.136;24.742;2023-05-10T07:09:11;24.00;37.90
80230;DHT22;69540;42.136;24.742;2023-05-10T07:11:38;23.90;38.20
80230;DHT22;69540;42.136;24.742;2023-05-10T07:14:04;23.90;38.20
80230;DHT22;69540;42.136;24.742;2023-05-10T07:16:30;23.90;38.40
80230;DHT22;69540;42.136;24.742;2023-05-10T07:18:58;23.90;38.70
80230;DHT22;69540;42.136;24.742;2023-05-10T07:21:24;23.90;38.80
80230;DHT22;69540;42.136;24.742;2023-05-10T07:23:59;23.90;38.80
80230;DHT22;69540;42.136;24.742;2023-05-10T07:26:26;23.90;38.80
80230;DHT22;69540;42.136;24.742;2023-05-10T07:28:52;23.90;38.80
80230;DHT22;69540;42.136;24.742;2023-05-10T07:31:20;24.00;39.00
80230;DHT22;69540;42.136;24.742;2023-05-10T07:37:00;24.00;39.20
80230;DHT22;69540;42.136;24.742;2023-05-10T07:39:29;24.00;39.30
80230;DHT22;69540;42.136;24.742;2023-05-10T07:41:55;24.00;39.20
80230;DHT22;69540;42.136;24.742;2023-05-10T07:44:21;24.10;39.20
80230;DHT22;69540;42.136;24.742;2023-05-10T07:49:31;24.10;39.30
80230;DHT22;69540;42.136;24.742;2023-05-10T07:52:04;24.10;39.60
80230;DHT22;69540;42.136;24.742;2023-05-10T07:54:44;24.10;39.60
80230;DHT22;69540;42.136;24.742;2023-05-10T07:57:42;24.10;39.80
80230;DHT22;69540;42.136;24.742;2023-05-10T08:00:09;24.10;39.80
80230;DHT22;69540;42.136;24.742;2023-05-10T08:02:39;24.10;39.70
80230;DHT22;69540;42.136;24.742;2023-05-10T08:05:06;24.10;39.50
80230;DHT22;69540;42.136;24.742;2023-05-10T08:07:32;24.20;39.50
80230;DHT22;69540;42.136;24.742;2023-05-10T08:09:58;24.20;39.40
80230;DHT22;69540;42.136;24.742;2023-05-10T08:12:23;24.20;39.50
80230;DHT22;69540;42.136;24.742;2023-05-10T08:14:49;24.10;39.50
80230;DHT22;69540;42.136;24.742;2023-05-10T08:17:15;24.10;39.50
80230;DHT22;69540;42.136;24.742;2023-05-10T08:19:40;24.10;39.70
80230;DHT22;69540;42.136;24.742;2023-05-10T08:22:06;24.20;39.70
80230;DHT22;69540;42.136;24.742;2023-05-10T08:24:32;24.20;39.60
80230;DHT22;69540;42.136;24.742;2023-05-10T08:27:13;24.20;39.50
80230;DHT22;69540;42.136;24.742;2023-05-10T08:29:38;24.20;39.70
80230;DHT22;69540;42.136;24.742;2023-05-10T08:32:04;24.20;39.90
80230;DHT22;69540;42.136;24.742;2023-05-10T08:34:30;24.20;39.80
80230;DHT22;69540;42.136;24.742;2023-05-10T08:36:56;24.20;40.10
80230;DHT22;69540;42.136;24.742;2023-05-10T08:39:22;24.20;40.20
80230;DHT22;69540;42.136;24.742;2023-05-10T08:41:51;24.30;40.40
80230;DHT22;69540;42.136;24.742;2023-05-10T08:44:19;24.30;40.30
80230;DHT22;69540;42.136;24.742;2023-05-10T08:46:46;24.30;40.40
80230;DHT22;69540;42.136;24.742;2023-05-10T08:49:17;24.30;40.20
80230;DHT22;69540;42.136;24.742;2023-05-10T08:51:50;24.30;40.10
80230;DHT22;69540;42.136;24.742;2023-05-10T08:54:17;24.30;40.00
80230;DHT22;69540;42.136;24.742;2023-05-10T08:56:42;24.30;40.20
80230;DHT22;69540;42.136;24.742;2023-05-10T08:59:08;24.30;40.40
80230;DHT22;69540;42.136;24.742;2023-05-10T09:01:35;24.20;40.40
80230;DHT22;69540;42.136;24.742;2023-05-10T09:04:02;24.20;40.40
80230;DHT22;69540;42.136;24.742;2023-05-10T09:06:28;24.30;40.30
80230;DHT22;69540;42.136;24.742;2023-05-10T09:08:54;24.30;40.10
80230;DHT22;69540;42.136;24.742;2023-05-10T09:11:20;24.30;39.90
80230;DHT22;69540;42.136;24.742;2023-05-10T09:13:48;24.40;40.00
80230;DHT22;69540;42.136;24.742;2023-05-10T09:16:14;24.40;39.90
80230;DHT22;69540;42.136;24.742;2023-05-10T09:18:40;24.40;39.60
80230;DHT22;69540;42.136;24.742;2023-05-10T09:21:05;24.40;39.80
80230;DHT22;69540;42.136;24.742;2023-05-10T09:23:31;24.40;39.80
80230;DHT22;69540;42.136;24.742;2023-05-10T09:26:04;24.40;39.80
80230;DHT22;69540;42.136;24.742;2023-05-10T09:28:57;24.40;40.00
80230;DHT22;69540;42.136;24.742;2023-05-10T09:31:24;24.40;39.80
80230;DHT22;69540;42.136;24.742;2023-05-10T09:33:53;24.30;39.40
80230;DHT22;69540;42.136;24.742;2023-05-10T09:36:18;24.30;39.40
80230;DHT22;69540;42.136;24.742;2023-05-10T09:38:51;24.40;39.20
80230;DHT22;69540;42.136;24.742;2023-05-10T09:41:18;24.30;38.70
80230;DHT22;69540;42.136;24.742;2023-05-10T09:43:44;24.40;38.80
80230;DHT22;69540;42.136;24.742;2023-05-10T09:46:10;24.30;38.40
80230;DHT22;69540;42.136;24.742;2023-05-10T09:48:45;24.30;38.00
80230;DHT22;69540;42.136;24.742;2023-05-10T09:51:27;24.30;38.10
80230;DHT22;69540;42.136;24.742;2023-05-10T09:56:38;24.40;37.70
80230;DHT22;69540;42.136;24.742;2023-05-10T09:59:10;24.30;37.80
80230;DHT22;69540;42.136;24.742;2023-05-10T10:01:40;24.40;38.00
80230;DHT22;69540;42.136;24.742;2023-05-10T10:04:08;24.30;37.70
80230;DHT22;69540;42.136;24.742;2023-05-10T10:06:43;24.30;37.60
80230;DHT22;69540;42.136;24.742;2023-05-10T10:09:17;24.40;37.60
80230;DHT22;69540;42.136;24.742;2023-05-10T10:11:43;24.30;37.40
80230;DHT22;69540;42.136;24.742;2023-05-10T10:14:11;24.30;38.00
80230;DHT22;69540;42.136;24.742;2023-05-10T10:16:36;24.40;36.60
80230;DHT22;69540;42.136;24.742;2023-05-10T10:19:02;24.40;36.30
80230;DHT22;69540;42.136;24.742;2023-05-10T10:24:32;24.40;36.10
80230;DHT22;69540;42.136;24.742;2023-05-10T10:27:09;24.40;36.20
80230;DHT22;69540;42.136;24.742;2023-05-10T10:30:25;24.40;35.80
80230;DHT22;69540;42.136;24.742;2023-05-10T10:35:33;24.40;35.60
80230;DHT22;69540;42.136;24.742;2023-05-10T10:38:00;24.40;35.50
80230;DHT22;69540;42.136;24.742;2023-05-10T10:40:52;24.40;35.70
80230;DHT22;69540;42.136;24.742;2023-05-10T10:43:28;24.40;35.70
80230;DHT22;69540;42.136;24.742;2023-05-10T10:46:22;24.30;35.70
80230;DHT22;69540;42.136;24.742;2023-05-10T10:49:14;24.40;35.50
80230;DHT22;69540;42.136;24.742;2023-05-10T10:51:40;24.40;35.40
80230;DHT22;69540;42.136;24.742;2023-05-10T10:57:33;24.30;35.20
80230;DHT22;69540;42.136;24.742;2023-05-10T11:00:27;24.30;35.10
80230;DHT22;69540;42.136;24.742;2023-05-10T11:03:38;24.40;34.70
80230;DHT22;69540;42.136;24.742;2023-05-10T11:06:31;24.30;35.00
80230;DHT22;69540;42.136;24.742;2023-05-10T11:09:09;24.30;34.90
80230;DHT22;69540;42.136;24.742;2023-05-10T11:14:33;24.30;34.80
80230;DHT22;69540;42.136;24.742;2023-05-10T11:17:26;24.30;34.50
80230;DHT22;69540;42.136;24.742;2023-05-10T11:20:09;24.30;34.40
80230;DHT22;69540;42.136;24.742;2023-05-10T11:22:51;24.30;34.60
80230;DHT22;69540;42.136;24.742;2023-05-10T11:25:17;24.30;34.70
80230;DHT22;69540;42.136;24.742;2023-05-10T11:28:02;24.30;34.50
80230;DHT22;69540;42.136;24.742;2023-05-10T11:30:39;24.40;34.40
80230;DHT22;69540;42.136;24.742;2023-05-10T11:33:08;24.40;34.50
80230;DHT22;69540;42.136;24.742;2023-05-10T11:35:52;24.30;34.30
80230;DHT22;69540;42.136;24.742;2023-05-10T11:38:21;24.40;34.30
80230;DHT22;69540;42.136;24.742;2023-05-10T11:40:46;24.40;34.20
80230;DHT22;69540;42.136;24.742;2023-05-10T11:43:17;24.40;34.20
80230;DHT22;69540;42.136;24.742;2023-05-10T11:45:42;24.40;34.00
80230;DHT22;69540;42.136;24.742;2023-05-10T11:48:08;24.40;34.10
80230;DHT22;69540;42.136;24.742;2023-05-10T11:50:36;24.30;34.10
80230;DHT22;69540;42.136;24.742;2023-05-10T11:53:05;24.30;34.10
80230;DHT22;69540;42.136;24.742;2023-05-10T11:55:36;24.30;33.90
80230;DHT22;69540;42.136;24.742;2023-05-10T11:58:02;24.40;34.00
80230;DHT22;69540;42.136;24.742;2023-05-10T12:00:28;24.40;33.90
80230;DHT22;69540;42.136;24.742;2023-05-10T12:02:54;24.30;33.80
80230;DHT22;69540;42.136;24.742;2023-05-10T12:05:20;24.30;33.80
80230;DHT22;69540;42.136;24.742;2023-05-10T12:08:14;24.30;33.80
80230;DHT22;69540;42.136;24.742;2023-05-10T12:10:40;24.40;33.70
80230;DHT22;69540;42.136;24.742;2023-05-10T12:13:11;24.40;33.90
80230;DHT22;69540;42.136;24.742;2023-05-10T12:15:37;24.30;33.70
80230;DHT22;69540;42.136;24.742;2023-05-10T12:18:02;24.40;33.60
80230;DHT22;69540;42.136;24.742;2023-05-10T12:20:28;24.30;33.50
80230;DHT22;69540;42.136;24.742;2023-05-10T12:22:56;24.40;33.60
80230;DHT22;69540;42.136;24.742;2023-05-10T12:25:23;24.40;33.60
80230;DHT22;69540;42.136;24.742;2023-05-10T12:27:57;24.40;33.60
80230;DHT22;69540;42.136;24.742;2023-05-10T12:30:24;24.40;33.60
80230;DHT22;69540;42.136;24.742;2023-05-10T12:32:53;24.40;33.70
80230;DHT22;69540;42.136;24.742;2023-05-10T12:35:19;24.40;33.60
80230;DHT22;69540;42.136;24.742;2023-05-10T12:37:47;24.40;33.90
80230;DHT22;69540;42.136;24.742;2023-05-10T12:40:13;24.30;33.80
80230;DHT22;69540;42.136;24.742;2023-05-10T12:42:39;24.40;33.80
80230;DHT22;69540;42.136;24.742;2023-05-10T12:45:06;24.30;33.90
80230;DHT22;69540;42.136;24.742;2023-05-10T12:47:33;24.30;33.80
80230;DHT22;69540;42.136;24.742;2023-05-10T12:50:00;24.40;34.00
80230;DHT22;69540;42.136;24.742;2023-05-10T12:52:26;24.30;33.90
80230;DHT22;69540;42.136;24.742;2023-05-10T12:54:52;24.40;33.80
80230;DHT22;69540;42.136;24.742;2023-05-10T13:00:20;24.40;33.80
80230;DHT22;69540;42.136;24.742;2023-05-10T13:02:46;24.30;33.80
80230;DHT22;69540;42.136;24.742;2023-05-10T13:05:12;24.40;33.50
80230;DHT22;69540;42.136;24.742;2023-05-10T13:11:13;24.40;33.60
80230;DHT22;69540;42.136;24.742;2023-05-10T13:13:41;24.40;33.80
80230;DHT22;69540;42.136;24.742;2023-05-10T13:16:10;24.40;33.80
80230;DHT22;69540;42.136;24.742;2023-05-10T13:18:41;24.40;33.90
80230;DHT22;69540;42.136;24.742;2023-05-10T13:21:38;24.30;33.70
80230;DHT22;69540;42.136;24.742;2023-05-10T13:24:06;24.40;33.70
80230;DHT22;69540;42.136;24.742;2023-05-10T13:26:32;24.40;33.70
80230;DHT22;69540;42.136;24.742;2023-05-10T13:28:58;24.40;33.60
80230;DHT22;69540;42.136;24.742;2023-05-10T13:31:25;24.40;33.40
80230;DHT22;69540;42.136;24.742;2023-05-10T13:33:50;24.40;33.60
80230;DHT22;69540;42.136;24.742;2023-05-10T13:36:16;24.40;33.60
80230;DHT22;69540;42.136;24.742;2023-05-10T13:38:42;24.40;33.70
80230;DHT22;69540;42.136;24.742;2023-05-10T13:41:07;24.40;33.50
80230;DHT22;69540;42.136;24.742;2023-05-10T13:43:56;24.40;33.40
80230;DHT22;69540;42.136;24.742;2023-05-10T13:46:22;24.40;33.30
80230;DHT22;69540;42.136;24.742;2023-05-10T13:48:47;24.40;33.50
80230;DHT22;69540;42.136;24.742;2023-05-10T13:51:16;24.40;33.70
80230;DHT22;69540;42.136;24.742;2023-05-10T13:53:41;24.40;33.60
80230;DHT22;69540;42.136;24.742;2023-05-10T13:56:35;24.40;33.30
80230;DHT22;69540;42.136;24.742;2023-05-10T13:59:01;24.40;33.30
80230;DHT22;69540;42.136;24.742;2023-05-10T14:01:27;24.40;33.40
80230;DHT22;69540;42.136;24.742;2023-05-10T14:03:52;24.40;33.20
80230;DHT22;69540;42.136;24.742;2023-05-10T14:06:18;24.40;33.10
80230;DHT22;69540;42.136;24.742;2023-05-10T14:08:44;24.40;33.10
80230;DHT22;69540;42.136;24.742;2023-05-10T14:11:10;24.30;33.20
80230;DHT22;69540;42.136;24.742;2023-05-10T14:13:35;24.40;33.20
80230;DHT22;69540;42.136;24.742;2023-05-10T14:16:01;24.40;33.10
80230;DHT22;69540;42.136;24.742;2023-05-10T14:18:27;24.40;33.20
80230;DHT22;69540;42.136;24.742;2023-05-10T14:20:52;24.40;33.20
80230;DHT22;69540;42.136;24.742;2023-05-10T14:23:18;24.40;33.30
80230;DHT22;69540;42.136;24.742;2023-05-10T14:26:02;24.40;33.70
80230;DHT22;69540;42.136;24.742;2023-05-10T14:28:35;24.40;33.80
80230;DHT22;69540;42.136;24.742;2023-05-10T14:31:01;24.40;34.00
80230;DHT22;69540;42.136;24.742;2023-05-10T14:33:27;24.40;34.20
80230;DHT22;69540;42.136;24.742;2023-05-10T14:35:53;24.40;33.90
80230;DHT22;69540;42.136;24.742;2023-05-10T14:38:20;24.40;33.60
80230;DHT22;69540;42.136;24.742;2023-05-10T14:40:45;24.40;33.40
80230;DHT22;69540;42.136;24.742;2023-05-10T14:43:11;24.40;33.20
80230;DHT22;69540;42.136;24.742;2023-05-10T14:45:37;24.40;33.00
80230;DHT22;69540;42.136;24.742;2023-05-10T14:48:03;24.40;33.10
80230;DHT22;69540;42.136;24.742;2023-05-10T14:50:30;24.40;33.10
80230;DHT22;69540;42.136;24.742;2023-05-10T14:53:34;24.40;33.20
80230;DHT22;69540;42.136;24.742;2023-05-10T14:56:00;24.40;33.30
80230;DHT22;69540;42.136;24.742;2023-05-10T14:58:27;24.40;33.00
80230;DHT22;69540;42.136;24.742;2023-05-10T15:00:52;24.40;33.20
80230;DHT22;69540;42.136;24.742;2023-05-10T15:03:18;24.40;33.20
80230;DHT22;69540;42.136;24.742;2023-05-10T15:05:44;24.40;33.10
80230;DHT22;69540;42.136;24.742;2023-05-10T15:08:10;24.40;33.00
80230;DHT22;69540;42.136;24.742;2023-05-10T15:10:35;24.40;33.00
80230;DHT22;69540;42.136;24.742;2023-05-10T15:13:03;24.40;32.80
80230;DHT22;69540;42.136;24.742;2023-05-10T15:15:29;24.40;33.00
80230;DHT22;69540;42.136;24.742;2023-05-10T15:17:54;24.40;32.60
80230;DHT22;69540;42.136;24.742;2023-05-10T15:20:20;24.50;32.70
80230;DHT22;69540;42.136;24.742;2023-05-10T15:22:46;24.40;32.70
80230;DHT22;69540;42.136;24.742;2023-05-10T15:25:14;24.40;32.80
80230;DHT22;69540;42.136;24.742;2023-05-10T15:33:07;24.50;32.70
80230;DHT22;69540;42.136;24.742;2023-05-10T15:35:33;24.70;32.40
80230;DHT22;69540;42.136;24.742;2023-05-10T15:38:01;24.80;32.30
80230;DHT22;69540;42.136;24.742;2023-05-10T15:40:26;24.80;32.20
80230;DHT22;69540;42.136;24.742;2023-05-10T15:42:52;24.80;32.00
80230;DHT22;69540;42.136;24.742;2023-05-10T15:45:18;24.80;32.10
80230;DHT22;69540;42.136;24.742;2023-05-10T15:47:44;24.80;31.90
80230;DHT22;69540;42.136;24.742;2023-05-10T15:50:10;24.80;31.90
80230;DHT22;69540;42.136;24.742;2023-05-10T15:52:35;24.80;31.70
80230;DHT22;69540;42.136;24.742;2023-05-10T15:55:01;24.80;31.60
80230;DHT22;69540;42.136;24.742;2023-05-10T15:57:28;24.80;31.60
80230;DHT22;69540;42.136;24.742;2023-05-10T15:59:54;24.80;31.60
80230;DHT22;69540;42.136;24.742;2023-05-10T16:02:20;24.80;31.70
80230;DHT22;69540;42.136;24.742;2023-05-10T16:04:47;24.70;31.60
80230;DHT22;69540;42.136;24.742;2023-05-10T16:07:13;24.70;31.70
80230;DHT22;69540;42.136;24.742;2023-05-10T16:09:38;24.70;31.50
80230;DHT22;69540;42.136;24.742;2023-05-10T16:12:04;24.70;31.60
80230;DHT22;69540;42.136;24.742;2023-05-10T16:14:30;24.70;31.50
80230;DHT22;69540;42.136;24.742;2023-05-10T16:16:56;24.70;31.40
80230;DHT22;69540;42.136;24.742;2023-05-10T16:19:21;24.70;31.40
80230;DHT22;69540;42.136;24.742;2023-05-10T16:21:47;24.60;31.00